Time;durP1;ratioP1;P1;durP2;ratioP2;P2;SDS_P1;SDS_P2;PMS_P1;PMS_P2;Temp;Humidity;BMP_temperature;BMP_pressure;BME280_temperature;BME280_humidity;BME280_pressure;Samples;Min_cycle;Max_cycle;Signal;HPM_P1;HPM_P2
2022/11/11 00:00:29;;;;;;;10.50;4.60;;;3.80;99.90;;;;;;5032628;28;20026;-82
2022/11/11 00:02:55;;;;;;;7.87;4.80;;;3.70;99.90;;;;;;5032909;28;20025;-82
2022/11/11 00:05:22;;;;;;;9.67;4.70;;;3.70;99.90;;;;;;5032614;28;20032;-82
2022/11/11 00:07:47;;;;;;;9.27;4.80;;;3.70;99.90;;;;;;5032691;28;20037;-82
2022/11/11 00:10:13;;;;;;;6.87;4.90;;;3.70;99.90;;;;;;5032081;28;20358;-82
2022/11/11 00:12:39;;;;;;;8.00;5.07;;;3.60;99.90;;;;;;5032573;28;20022;-82
2022/11/11 00:15:05;;;;;;;8.50;5.67;;;3.60;99.90;;;;;;5033796;28;20149;-82
2022/11/11 00:25:49;;;;;;;11.43;5.60;;;3.50;99.90;;;;;;5036562;28;20028;-82
2022/11/11 00:28:17;;;;;;;10.17;4.97;;;3.50;99.90;;;;;;5036385;28;20021;-82
2022/11/11 00:30:42;;;;;;;8.37;5.20;;;3.60;99.90;;;;;;5034988;28;20025;-82
2022/11/11 00:33:08;;;;;;;10.13;5.37;;;3.50;99.90;;;;;;5036324;28;20025;-82
2022/11/11 00:41:01;;;;;;;8.10;4.47;;;3.50;99.90;;;;;;5036214;28;20108;-81
2022/11/11 00:43:27;;;;;;;9.30;4.90;;;3.50;99.90;;;;;;5036086;28;20029;-81
2022/11/11 00:45:52;;;;;;;8.07;4.83;;;3.50;99.90;;;;;;5036104;28;20057;-81
2022/11/11 00:51:22;;;;;;;8.07;4.97;;;3.50;99.90;;;;;;5034148;28;20029;-82
2022/11/11 00:53:47;;;;;;;9.53;4.77;;;3.50;99.90;;;;;;5034223;28;20112;-82
2022/11/11 00:56:13;;;;;;;13.93;5.07;;;3.50;99.90;;;;;;5035277;28;20041;-82
2022/11/11 00:58:38;;;;;;;14.47;5.30;;;3.50;99.90;;;;;;5036456;28;20037;-81
2022/11/11 01:01:04;;;;;;;8.80;5.20;;;3.60;99.90;;;;;;5034484;28;20030;-82
2022/11/11 01:03:30;;;;;;;9.63;5.40;;;3.60;99.90;;;;;;5036001;28;20053;-82
2022/11/11 01:06:00;;;;;;;6.97;4.97;;;3.50;99.90;;;;;;5036106;28;20033;-82
2022/11/11 01:08:25;;;;;;;7.60;4.83;;;3.50;99.90;;;;;;5035941;28;20022;-82
2022/11/11 01:10:51;;;;;;;10.30;5.07;;;3.50;99.90;;;;;;5035703;28;20084;-82
2022/11/11 01:13:35;;;;;;;9.03;5.50;;;3.50;99.90;;;;;;5035894;28;20109;-82
2022/11/11 01:16:11;;;;;;;7.10;5.00;;;3.50;99.90;;;;;;5035971;28;20057;-82
2022/11/11 01:18:37;;;;;;;8.20;4.70;;;3.50;99.90;;;;;;5035906;28;20100;-82
2022/11/11 01:21:04;;;;;;;7.33;4.40;;;3.50;99.90;;;;;;5035693;28;20413;-82
2022/11/11 01:23:32;;;;;;;7.57;4.27;;;3.40;99.90;;;;;;5035281;28;20064;-82
2022/11/11 01:26:06;;;;;;;6.40;4.20;;;3.40;99.90;;;;;;5035276;28;20029;-82
2022/11/11 01:28:32;;;;;;;9.57;4.07;;;3.30;99.90;;;;;;5034741;28;20429;-82
2022/11/11 01:31:04;;;;;;;6.97;3.90;;;3.20;99.90;;;;;;5035167;28;20025;-82
2022/11/11 01:33:29;;;;;;;10.50;3.90;;;3.20;99.90;;;;;;5035138;28;20099;-82
2022/11/11 01:36:01;;;;;;;5.93;4.03;;;3.10;99.90;;;;;;5035336;28;20033;-82
2022/11/11 01:38:26;;;;;;;9.30;4.23;;;3.10;99.90;;;;;;5035150;28;20079;-82
2022/11/11 01:40:52;;;;;;;7.87;4.47;;;3.10;99.90;;;;;;5035365;28;20120;-82
2022/11/11 01:43:20;;;;;;;9.13;4.47;;;3.00;99.90;;;;;;5035367;28;20101;-82
2022/11/11 01:45:48;;;;;;;10.90;5.63;;;3.10;99.90;;;;;;5034890;28;20030;-82
2022/11/11 01:51:06;;;;;;;10.93;6.00;;;3.00;99.90;;;;;;5035133;28;20152;-82
2022/11/11 01:53:31;;;;;;;9.40;5.67;;;3.00;99.90;;;;;;5035028;28;20071;-82
2022/11/11 01:56:00;;;;;;;9.77;5.63;;;2.90;99.90;;;;;;5034733;28;20454;-82
2022/11/11 01:58:26;;;;;;;11.63;5.63;;;3.00;99.90;;;;;;5034974;28;20037;-82
2022/11/11 02:00:51;;;;;;;11.03;6.23;;;2.90;99.90;;;;;;5034652;28;20022;-82
2022/11/11 02:03:20;;;;;;;9.97;5.63;;;3.00;99.90;;;;;;5033483;28;20029;-82
2022/11/11 02:05:46;;;;;;;9.70;5.80;;;2.90;99.90;;;;;;5034637;28;20033;-82
2022/11/11 02:08:30;;;;;;;12.20;6.20;;;2.90;99.90;;;;;;5034804;28;20033;-82
2022/11/11 02:11:10;;;;;;;9.50;5.20;;;3.00;99.90;;;;;;5033188;28;20075;-82
2022/11/11 02:16:26;;;;;;;8.70;5.77;;;2.90;99.90;;;;;;5034602;28;20044;-82
2022/11/11 02:18:53;;;;;;;8.57;4.50;;;2.90;99.90;;;;;;5034404;28;20049;-82
2022/11/11 02:21:46;;;;;;;8.90;5.07;;;2.90;99.90;;;;;;5034291;28;20029;-82
2022/11/11 02:24:15;;;;;;;6.10;3.97;;;2.80;99.90;;;;;;5034278;28;20018;-82
2022/11/11 02:26:42;;;;;;;7.63;3.97;;;2.80;99.90;;;;;;5034183;28;20021;-82
2022/11/11 02:29:12;;;;;;;7.83;4.07;;;2.80;99.90;;;;;;5034415;28;20029;-82
2022/11/11 02:31:38;;;;;;;7.13;4.80;;;2.80;99.90;;;;;;5034294;28;20056;-82
2022/11/11 02:34:04;;;;;;;11.90;4.57;;;2.80;99.90;;;;;;5034205;28;20033;-82
2022/11/11 02:36:29;;;;;;;5.87;4.17;;;2.70;99.90;;;;;;5034018;28;20485;-82
2022/11/11 02:38:55;;;;;;;6.10;4.07;;;2.70;99.90;;;;;;5033649;28;20116;-82
2022/11/11 02:44:05;;;;;;;5.90;3.90;;;2.70;99.90;;;;;;5034126;28;20136;-81
2022/11/11 02:46:30;;;;;;;9.97;4.57;;;2.70;99.90;;;;;;5034291;28;20030;-82
2022/11/11 02:48:56;;;;;;;6.13;4.07;;;2.70;99.90;;;;;;5033622;28;20057;-82
2022/11/11 02:51:21;;;;;;;7.07;4.10;;;2.70;99.90;;;;;;5032542;28;20453;-82
2022/11/11 02:53:47;;;;;;;8.77;4.50;;;2.60;99.90;;;;;;5033829;28;20501;-82
2022/11/11 02:57:05;;;;;;;7.40;5.47;;;2.60;99.90;;;;;;5032339;28;20386;-82
2022/11/11 02:58:58;;;;;;;8.32;4.22;;;2.60;99.90;;;;;;5033520;28;20029;-82
2022/11/11 03:01:24;;;;;;;7.50;4.47;;;2.60;99.90;;;;;;5033567;28;20037;-82
2022/11/11 03:03:49;;;;;;;11.37;4.57;;;2.60;99.90;;;;;;5033478;28;20104;-82
2022/11/11 03:06:15;;;;;;;11.17;4.60;;;2.60;99.90;;;;;;5033645;28;20021;-82
2022/11/11 03:08:40;;;;;;;7.63;4.33;;;2.60;99.90;;;;;;5033626;28;20028;-82
2022/11/11 03:11:06;;;;;;;7.10;4.30;;;2.60;99.90;;;;;;5033500;28;20091;-82
2022/11/11 03:13:31;;;;;;;6.93;4.13;;;2.60;99.90;;;;;;5033834;28;20048;-82
2022/11/11 03:15:57;;;;;;;7.30;4.63;;;2.60;99.90;;;;;;5033289;28;20108;-82
2022/11/11 03:18:22;;;;;;;6.43;4.57;;;2.50;99.90;;;;;;5033121;28;20045;-83
2022/11/11 03:21:06;;;;;;;6.87;4.07;;;2.50;99.90;;;;;;5033374;28;20113;-82
2022/11/11 03:23:32;;;;;;;6.07;4.70;;;2.50;99.90;;;;;;5033379;28;20025;-82
2022/11/11 03:25:57;;;;;;;8.40;4.37;;;2.40;99.90;;;;;;5032942;28;20540;-82
2022/11/11 03:28:24;;;;;;;7.37;4.47;;;2.40;99.90;;;;;;5033096;28;20105;-82
2022/11/11 03:30:49;;;;;;;6.67;4.70;;;2.40;99.90;;;;;;5033348;28;20434;-82
2022/11/11 03:33:17;;;;;;;7.73;4.13;;;2.40;99.90;;;;;;5033008;28;20028;-82
2022/11/11 03:35:45;;;;;;;5.43;3.97;;;2.40;99.90;;;;;;5033439;28;20108;-82
2022/11/11 03:38:23;;;;;;;6.93;4.33;;;2.40;99.90;;;;;;5032902;28;20032;-82
2022/11/11 03:40:52;;;;;;;10.53;4.03;;;2.40;99.90;;;;;;5032946;28;20108;-82
2022/11/11 03:43:20;;;;;;;6.97;4.60;;;2.40;99.90;;;;;;5033593;28;20437;-82
2022/11/11 03:45:46;;;;;;;8.33;4.20;;;2.40;99.90;;;;;;5031409;28;20470;-82
2022/11/11 03:48:12;;;;;;;10.93;4.80;;;2.40;99.90;;;;;;5032903;28;20045;-81
2022/11/11 03:50:38;;;;;;;7.27;4.47;;;2.40;99.90;;;;;;5032118;28;20187;-80
2022/11/11 03:53:05;;;;;;;6.77;4.30;;;2.40;99.90;;;;;;5032791;28;20064;-82
2022/11/11 03:55:31;;;;;;;6.77;3.90;;;2.30;99.90;;;;;;5032880;28;20094;-81
2022/11/11 03:57:56;;;;;;;6.27;3.77;;;2.30;99.90;;;;;;5032684;28;20029;-81
2022/11/11 04:00:24;;;;;;;6.60;3.77;;;2.30;99.90;;;;;;5031696;28;20034;-82
2022/11/11 04:11:11;;;;;;;4.55;3.35;;;2.20;99.90;;;;;;5033168;28;20092;-82
2022/11/11 04:16:22;;;;;;;6.83;3.70;;;2.20;99.90;;;;;;5032777;28;20079;-82
2022/11/11 04:21:44;;;;;;;4.87;3.13;;;2.10;99.90;;;;;;5032836;28;20083;-82
2022/11/11 04:27:01;;;;;;;4.87;3.43;;;2.10;99.90;;;;;;5033133;28;20029;-82
2022/11/11 04:29:28;;;;;;;7.00;4.27;;;2.10;99.90;;;;;;5031425;28;20026;-82
2022/11/11 04:34:43;;;;;;;8.47;3.53;;;2.10;99.90;;;;;;5032586;28;20040;-81
2022/11/11 04:37:09;;;;;;;7.03;3.60;;;2.10;99.90;;;;;;5032527;28;20026;-82
2022/11/11 04:42:19;;;;;;;12.10;3.93;;;2.10;99.90;;;;;;5032687;28;20037;-82
2022/11/11 04:47:29;;;;;;;6.83;3.50;;;2.10;99.90;;;;;;5032675;28;20028;-82
2022/11/11 04:49:55;;;;;;;6.77;3.57;;;2.00;99.90;;;;;;5034377;28;20029;-84
2022/11/11 04:52:26;;;;;;;6.53;3.63;;;2.00;99.90;;;;;;5034737;28;20028;-84
2022/11/11 04:57:45;;;;;;;6.78;3.92;;;1.90;99.90;;;;;;5049677;28;20036;-85
2022/11/11 05:00:13;;;;;;;6.30;3.80;;;1.90;99.90;;;;;;5047626;28;20033;-84
2022/11/11 05:05:24;;;;;;;12.17;6.10;;;1.90;99.90;;;;;;5044265;28;20059;-84
2022/11/11 05:10:35;;;;;;;7.25;4.13;;;1.80;99.90;;;;;;5053232;28;20094;-85
2022/11/11 05:21:22;;;;;;;11.07;4.60;;;1.90;99.90;;;;;;5033038;28;20072;-84
2022/11/11 05:26:35;;;;;;;9.30;4.40;;;1.90;99.90;;;;;;5052561;28;20079;-83
2022/11/11 05:29:01;;;;;;;9.43;4.57;;;1.90;99.90;;;;;;5055234;28;20465;-83
2022/11/11 05:31:27;;;;;;;8.70;5.03;;;1.90;99.90;;;;;;5055230;28;20021;-83
2022/11/11 05:33:53;;;;;;;7.10;5.40;;;1.90;99.90;;;;;;5055103;28;20032;-83
2022/11/11 05:36:19;;;;;;;8.77;5.13;;;1.90;99.90;;;;;;5055781;28;20029;-82
2022/11/11 05:38:44;;;;;;;7.43;4.27;;;1.90;99.90;;;;;;5055085;28;20029;-82
2022/11/11 05:41:10;;;;;;;9.57;5.23;;;2.00;99.90;;;;;;5055112;28;20051;-83
2022/11/11 05:43:35;;;;;;;7.60;4.87;;;1.90;99.90;;;;;;5055135;28;20142;-83
2022/11/11 05:46:01;;;;;;;6.73;4.30;;;2.00;99.90;;;;;;5054827;28;20060;-83
2022/11/11 05:48:26;;;;;;;6.77;3.90;;;2.00;99.90;;;;;;5055423;28;20022;-83
2022/11/11 05:50:52;;;;;;;7.63;4.33;;;2.00;99.90;;;;;;5054856;28;20029;-83
2022/11/11 05:53:22;;;;;;;7.00;4.53;;;2.00;99.90;;;;;;5055370;28;20021;-83
2022/11/11 05:55:49;;;;;;;8.10;3.97;;;2.00;99.90;;;;;;5054801;28;20021;-83
2022/11/11 05:58:16;;;;;;;7.13;3.90;;;2.00;99.90;;;;;;5054738;28;20039;-83
2022/11/11 06:00:42;;;;;;;8.43;3.87;;;2.00;99.90;;;;;;5054837;28;20055;-83
2022/11/11 06:03:08;;;;;;;9.37;4.10;;;2.10;99.90;;;;;;5054575;28;20470;-83
2022/11/11 06:05:35;;;;;;;5.00;3.73;;;2.10;99.90;;;;;;5054529;28;20043;-82
2022/11/11 06:08:01;;;;;;;10.43;3.97;;;2.10;99.90;;;;;;5054915;28;20021;-83
2022/11/11 06:10:30;;;;;;;6.33;3.77;;;2.10;99.90;;;;;;5054648;28;20115;-83
2022/11/11 06:13:09;;;;;;;7.50;3.63;;;2.20;99.90;;;;;;5042733;28;20119;-82
2022/11/11 06:15:36;;;;;;;6.50;3.80;;;2.20;99.90;;;;;;5034430;28;20136;-83
2022/11/11 06:18:03;;;;;;;8.37;3.87;;;2.20;99.90;;;;;;5034340;28;20489;-83
2022/11/11 06:20:29;;;;;;;6.20;4.13;;;2.20;99.90;;;;;;5049171;28;20032;-83
2022/11/11 06:22:55;;;;;;;9.57;5.13;;;2.20;99.90;;;;;;5054240;28;20139;-83
2022/11/11 06:28:15;;;;;;;6.47;4.13;;;2.20;99.90;;;;;;5052840;28;20083;-84
2022/11/11 06:30:41;;;;;;;7.03;4.10;;;2.20;99.90;;;;;;5050048;28;20065;-84
2022/11/11 06:33:08;;;;;;;7.17;4.03;;;2.20;99.90;;;;;;5048752;28;20040;-84
2022/11/11 06:35:35;;;;;;;5.90;4.07;;;2.20;99.90;;;;;;5046677;28;20033;-84
2022/11/11 06:38:02;;;;;;;6.00;3.87;;;2.20;99.90;;;;;;5046033;28;20032;-84
2022/11/11 06:40:27;;;;;;;8.20;4.00;;;2.10;99.90;;;;;;5051202;28;20097;-84
2022/11/11 06:42:53;;;;;;;5.60;3.93;;;2.10;99.90;;;;;;5050793;28;20037;-84
2022/11/11 06:45:19;;;;;;;7.70;4.40;;;2.10;99.90;;;;;;5048530;28;20036;-84
2022/11/11 06:47:44;;;;;;;12.03;5.03;;;2.10;99.90;;;;;;5050312;28;20529;-84
2022/11/11 06:50:10;;;;;;;5.67;4.90;;;2.10;99.90;;;;;;5050816;28;20030;-84
2022/11/11 06:52:35;;;;;;;9.20;4.63;;;2.10;99.90;;;;;;5049313;28;20363;-84
2022/11/11 06:55:01;;;;;;;5.97;4.57;;;2.10;99.90;;;;;;5044293;28;20037;-84
2022/11/11 06:57:26;;;;;;;8.77;6.23;;;2.10;99.90;;;;;;5044078;28;20059;-84
2022/11/11 06:59:52;;;;;;;7.23;4.53;;;2.10;99.90;;;;;;5044401;28;20106;-85
2022/11/11 07:02:17;;;;;;;9.57;4.93;;;2.10;99.90;;;;;;5043803;28;20040;-85
2022/11/11 07:04:43;;;;;;;6.20;4.27;;;2.20;99.90;;;;;;5043772;28;20147;-85
2022/11/11 07:07:08;;;;;;;6.20;4.23;;;2.30;99.90;;;;;;5044478;28;20037;-85
2022/11/11 07:09:34;;;;;;;7.83;5.47;;;2.40;99.90;;;;;;5046616;28;20036;-85
2022/11/11 07:12:00;;;;;;;10.97;5.80;;;2.60;99.90;;;;;;5050573;28;20047;-85
2022/11/11 07:14:26;;;;;;;7.40;5.00;;;2.70;99.90;;;;;;5050450;28;20071;-85
2022/11/11 07:16:52;;;;;;;8.70;5.00;;;2.80;99.90;;;;;;5039984;28;20025;-82
2022/11/11 07:19:17;;;;;;;11.80;5.93;;;2.90;99.90;;;;;;5060463;28;20089;-82
2022/11/11 07:21:43;;;;;;;11.37;6.90;;;3.00;99.90;;;;;;5044958;28;20014;-86
2022/11/11 07:24:08;;;;;;;11.07;7.40;;;3.00;99.90;;;;;;5047104;28;20032;-86
2022/11/11 07:26:34;;;;;;;16.20;8.63;;;3.10;99.90;;;;;;5049898;28;20071;-85
2022/11/11 07:28:59;;;;;;;14.27;9.03;;;3.10;99.90;;;;;;5049060;28;20036;-86
2022/11/11 07:31:25;;;;;;;15.47;7.63;;;3.20;99.90;;;;;;5050283;28;20032;-86
2022/11/11 07:33:51;;;;;;;11.73;7.73;;;3.30;99.90;;;;;;5047878;28;20053;-86
2022/11/11 07:36:16;;;;;;;11.37;6.63;;;3.30;99.90;;;;;;5051186;28;20078;-86
2022/11/11 07:38:42;;;;;;;10.23;6.70;;;3.40;99.90;;;;;;5059213;28;20469;-86
2022/11/11 07:41:07;;;;;;;11.90;5.80;;;3.50;99.90;;;;;;5061849;28;20420;-86
2022/11/11 07:43:33;;;;;;;10.77;7.43;;;3.60;99.90;;;;;;5049178;28;20465;-86
2022/11/11 07:46:01;;;;;;;10.30;5.80;;;3.60;99.90;;;;;;5048318;28;20029;-86
2022/11/11 07:48:27;;;;;;;8.93;5.97;;;3.70;99.90;;;;;;5045441;28;20044;-86
2022/11/11 07:50:55;;;;;;;13.53;6.57;;;3.80;99.90;;;;;;5040614;28;20442;-86
2022/11/11 07:53:21;;;;;;;13.57;7.33;;;3.90;99.90;;;;;;5043418;28;20060;-86
2022/11/11 07:55:47;;;;;;;15.10;7.20;;;4.00;99.90;;;;;;5058124;28;20053;-86
2022/11/11 07:58:12;;;;;;;11.57;6.57;;;4.10;99.90;;;;;;5049999;28;20029;-86
2022/11/11 08:00:38;;;;;;;10.67;5.97;;;4.20;99.90;;;;;;5049957;28;20029;-86
2022/11/11 08:03:04;;;;;;;12.13;6.77;;;4.30;99.90;;;;;;5049193;28;20389;-85
2022/11/11 08:05:29;;;;;;;17.03;7.17;;;4.30;99.90;;;;;;5049036;28;20029;-85
2022/11/11 08:07:55;;;;;;;14.47;6.80;;;4.40;99.90;;;;;;5049659;28;20549;-85
2022/11/11 08:10:20;;;;;;;12.10;6.80;;;4.50;99.90;;;;;;5049944;28;20082;-86
2022/11/11 08:15:36;;;;;;;13.93;6.90;;;4.70;99.90;;;;;;5049712;28;20083;-86
2022/11/11 08:18:02;;;;;;;17.00;7.50;;;4.80;99.90;;;;;;5049474;28;20044;-86
2022/11/11 08:20:28;;;;;;;23.97;9.77;;;4.90;99.90;;;;;;5042551;28;21120;-86
2022/11/11 08:22:56;;;;;;;21.17;10.00;;;4.90;99.90;;;;;;5045084;28;20064;-86
2022/11/11 08:25:22;;;;;;;19.73;9.77;;;5.00;99.90;;;;;;5047848;28;20036;-86
2022/11/11 08:27:48;;;;;;;18.00;7.87;;;5.00;99.90;;;;;;5048094;28;20466;-86
2022/11/11 08:30:14;;;;;;;12.97;8.00;;;5.00;99.90;;;;;;5047589;28;20453;-85
2022/11/11 08:32:39;;;;;;;10.30;7.00;;;5.10;99.90;;;;;;5036157;28;20025;-86
2022/11/11 08:35:05;;;;;;;11.40;6.07;;;5.10;99.90;;;;;;5043433;28;20029;-86
2022/11/11 08:37:31;;;;;;;7.90;5.30;;;5.10;99.90;;;;;;5052219;28;20033;-86
2022/11/11 08:39:57;;;;;;;7.57;5.50;;;5.10;99.90;;;;;;5042301;28;20043;-86
2022/11/11 08:42:23;;;;;;;9.53;6.00;;;5.20;99.90;;;;;;5043180;28;20035;-86
2022/11/11 08:44:48;;;;;;;9.20;4.80;;;5.20;99.90;;;;;;5045994;28;20064;-82
2022/11/11 08:47:16;;;;;;;5.67;4.20;;;5.30;99.90;;;;;;5053102;28;20114;-82
2022/11/11 08:49:42;;;;;;;7.03;4.50;;;5.30;99.90;;;;;;5053068;28;20022;-82
2022/11/11 08:52:12;;;;;;;7.97;4.67;;;5.40;99.90;;;;;;5038437;28;20105;-82
2022/11/11 08:54:38;;;;;;;6.07;4.33;;;5.40;99.90;;;;;;5056095;28;20025;-82
2022/11/11 08:57:03;;;;;;;7.00;4.57;;;5.50;99.90;;;;;;5041006;28;20033;-82
2022/11/11 08:59:29;;;;;;;5.07;4.13;;;5.50;99.90;;;;;;5045958;28;20044;-82
2022/11/11 09:01:54;;;;;;;7.13;4.27;;;5.60;99.90;;;;;;5075061;28;20032;-82
2022/11/11 09:04:20;;;;;;;5.33;4.07;;;5.70;99.90;;;;;;5072580;28;20025;-82
2022/11/11 09:06:47;;;;;;;7.10;4.93;;;5.80;99.90;;;;;;5055985;28;20535;-82
2022/11/11 09:09:12;;;;;;;5.87;4.40;;;5.90;99.90;;;;;;5055953;28;20021;-82
2022/11/11 09:11:38;;;;;;;6.80;4.43;;;6.00;99.90;;;;;;5055932;28;20470;-82
2022/11/11 09:14:04;;;;;;;7.20;4.07;;;6.10;99.90;;;;;;5054418;28;20442;-85
2022/11/11 09:16:29;;;;;;;8.67;4.67;;;6.20;99.90;;;;;;5050838;28;20052;-86
2022/11/11 09:18:55;;;;;;;7.77;4.67;;;6.30;99.90;;;;;;5051570;28;20049;-86
2022/11/11 09:21:20;;;;;;;11.70;4.50;;;6.40;99.90;;;;;;5049306;28;20041;-86
2022/11/11 09:23:46;;;;;;;7.43;4.33;;;6.60;99.90;;;;;;5044014;28;20474;-86
2022/11/11 09:26:11;;;;;;;9.53;4.10;;;6.70;99.90;;;;;;5054506;28;20342;-82
2022/11/11 09:28:37;;;;;;;8.63;4.63;;;6.80;99.90;;;;;;5056886;28;20084;-82
2022/11/11 09:31:03;;;;;;;5.23;3.50;;;7.00;99.90;;;;;;5056257;28;20037;-81
2022/11/11 09:33:29;;;;;;;7.43;4.17;;;7.10;99.90;;;;;;5055916;28;20021;-82
2022/11/11 09:35:56;;;;;;;6.97;3.80;;;7.30;99.90;;;;;;5055270;28;20043;-82
2022/11/11 09:38:21;;;;;;;8.83;4.23;;;7.40;99.90;;;;;;5055309;28;20485;-82
2022/11/11 09:41:03;;;;;;;7.83;4.47;;;7.50;99.90;;;;;;5065786;28;20054;-82
2022/11/11 09:43:45;;;;;;;7.53;4.60;;;7.70;99.90;;;;;;5075489;28;20024;-82
2022/11/11 09:46:38;;;;;;;9.00;3.10;;;7.90;99.90;;;;;;5056667;28;20028;-82
2022/11/11 09:49:18;;;;;;;6.03;3.47;;;8.00;99.90;;;;;;5054475;28;20158;-82
2022/11/11 09:52:02;;;;;;;5.67;3.03;;;8.20;99.90;;;;;;5054942;28;20029;-82
2022/11/11 09:54:53;;;;;;;5.43;3.43;;;8.40;99.90;;;;;;5055286;28;20374;-82
2022/11/11 09:57:41;;;;;;;6.13;3.10;;;8.40;99.90;;;;;;5034897;28;20459;-83
2022/11/11 10:00:28;;;;;;;6.33;2.87;;;8.60;99.90;;;;;;5035001;28;20025;-83
2022/11/11 10:03:03;;;;;;;6.23;3.20;;;8.70;99.90;;;;;;5044256;28;20039;-83
2022/11/11 10:05:33;;;;;;;5.67;2.90;;;8.80;99.90;;;;;;5054695;28;20021;-83
2022/11/11 10:08:07;;;;;;;4.43;3.00;;;8.80;99.90;;;;;;5038920;28;20032;-83
2022/11/11 10:10:44;;;;;;;6.20;3.10;;;8.90;99.90;;;;;;5054062;28;20096;-84
2022/11/11 10:13:15;;;;;;;4.30;3.17;;;9.00;99.90;;;;;;5042006;28;20093;-82
2022/11/11 10:15:53;;;;;;;6.97;3.07;;;9.00;99.90;;;;;;5043578;28;20032;-82
2022/11/11 10:18:24;;;;;;;4.77;3.30;;;9.20;99.90;;;;;;5049791;28;20045;-82
2022/11/11 10:20:54;;;;;;;7.17;3.90;;;9.30;99.90;;;;;;5047005;28;20036;-83
2022/11/11 10:23:34;;;;;;;6.17;3.47;;;9.40;99.90;;;;;;5039501;28;20051;-82
2022/11/11 10:26:21;;;;;;;4.90;3.60;;;9.50;99.90;;;;;;5044394;28;20040;-82
2022/11/11 10:28:52;;;;;;;14.07;5.50;;;9.60;99.90;;;;;;5051919;28;20032;-82
2022/11/11 10:31:23;;;;;;;6.17;4.13;;;9.80;99.90;;;;;;5050979;28;20060;-83
2022/11/11 10:34:02;;;;;;;7.23;4.27;;;9.80;99.90;;;;;;5051087;28;20032;-83
2022/11/11 10:36:45;;;;;;;6.47;4.23;;;9.90;99.90;;;;;;5052028;28;20036;-83
2022/11/11 10:39:16;;;;;;;7.33;4.10;;;9.90;99.90;;;;;;5050487;28;20106;-83
2022/11/11 10:41:47;;;;;;;5.10;3.50;;;10.00;99.90;;;;;;5050166;28;20029;-83
2022/11/11 10:44:20;;;;;;;4.53;3.33;;;10.10;99.90;;;;;;5049900;28;20048;-84
2022/11/11 10:47:04;;;;;;;4.60;3.35;;;10.10;99.90;;;;;;5044576;28;20028;-83
2022/11/11 10:49:34;;;;;;;3.80;3.23;;;10.20;99.90;;;;;;5051031;28;20075;-82
2022/11/11 10:52:15;;;;;;;6.80;3.42;;;10.20;99.90;;;;;;5051242;28;20047;-82
2022/11/11 10:54:59;;;;;;;4.85;3.40;;;10.20;99.90;;;;;;5050400;28;20033;-83
2022/11/11 10:57:36;;;;;;;5.75;2.72;;;10.20;99.90;;;;;;5052656;28;20025;-82
2022/11/11 11:00:13;;;;;;;5.22;3.00;;;10.20;99.90;;;;;;5043372;28;20521;-83
2022/11/11 11:02:50;;;;;;;4.68;2.88;;;10.30;99.90;;;;;;5043866;28;20121;-82
2022/11/11 11:05:25;;;;;;;5.82;3.38;;;10.40;99.90;;;;;;5048222;28;20036;-82
2022/11/11 11:07:55;;;;;;;6.70;3.63;;;10.40;99.90;;;;;;5049569;28;20028;-84
2022/11/11 11:10:44;;;;;;;4.43;3.40;;;10.50;99.90;;;;;;5050241;28;20029;-82
2022/11/11 11:13:20;;;;;;;8.10;3.65;;;10.60;99.90;;;;;;5039628;28;20029;-82
2022/11/11 11:15:54;;;;;;;6.70;4.40;;;10.60;99.90;;;;;;5033064;28;20092;-82
2022/11/11 11:18:20;;;;;;;4.93;4.10;;;10.70;99.90;;;;;;5048913;28;20033;-82
2022/11/11 11:20:57;;;;;;;6.18;4.88;;;10.70;99.90;;;;;;5052956;28;20033;-82
2022/11/11 11:23:37;;;;;;;8.15;4.60;;;10.70;99.90;;;;;;5038414;28;20030;-82
2022/11/11 11:26:04;;;;;;;7.32;5.28;;;10.80;99.90;;;;;;5052429;28;20068;-83
2022/11/11 11:28:30;;;;;;;6.97;4.70;;;10.80;99.90;;;;;;5052517;28;20025;-82
2022/11/11 11:31:06;;;;;;;6.97;4.80;;;10.90;99.90;;;;;;5051862;28;20025;-82
2022/11/11 11:33:53;;;;;;;6.53;4.80;;;10.90;99.90;;;;;;5050107;28;20111;-79
2022/11/11 11:36:19;;;;;;;7.43;4.57;;;10.80;99.90;;;;;;5050514;28;20032;-83
2022/11/11 11:38:49;;;;;;;5.53;4.60;;;10.70;99.90;;;;;;5052588;28;20021;-90
2022/11/11 11:41:17;;;;;;;5.28;4.07;;;10.60;99.90;;;;;;5052918;28;20036;-83
2022/11/11 11:43:44;;;;;;;6.55;4.47;;;10.70;99.90;;;;;;5052613;28;20434;-82
2022/11/11 11:46:26;;;;;;;8.52;4.45;;;10.70;99.90;;;;;;5052229;28;20032;-83
2022/11/11 11:49:18;;;;;;;8.90;4.97;;;10.80;99.90;;;;;;5050222;28;20033;-85
2022/11/11 11:51:56;;;;;;;9.95;5.88;;;10.80;99.90;;;;;;5043413;28;20047;-86
2022/11/11 11:54:22;;;;;;;5.75;4.68;;;10.90;99.90;;;;;;5051373;28;20053;-86
2022/11/11 11:56:52;;;;;;;8.13;4.63;;;10.90;99.90;;;;;;5037060;28;20076;-86
2022/11/11 11:59:38;;;;;;;6.15;4.40;;;11.00;99.90;;;;;;5050564;28;20083;-84
2022/11/11 12:02:25;;;;;;;7.40;4.50;;;11.00;99.90;;;;;;5046309;28;20357;-84
2022/11/11 12:05:18;;;;;;;5.90;4.15;;;11.00;99.90;;;;;;5041597;28;20206;-84
2022/11/11 12:08:24;;;;;;;7.32;4.45;;;11.00;99.90;;;;;;5040407;28;20013;-84
2022/11/11 12:11:13;;;;;;;7.22;4.65;;;11.00;99.90;;;;;;5046188;28;20107;-86
2022/11/11 12:14:02;;;;;;;6.57;4.03;;;10.90;99.90;;;;;;5048165;28;20142;-86
2022/11/11 12:16:51;;;;;;;9.55;4.25;;;11.00;99.90;;;;;;5048138;28;20071;-86
2022/11/11 12:19:48;;;;;;;6.47;4.30;;;11.20;99.90;;;;;;5046005;28;20393;-86
2022/11/11 12:22:39;;;;;;;8.77;4.45;;;11.20;99.90;;;;;;5048587;28;20064;-85
2022/11/11 12:25:19;;;;;;;6.78;4.30;;;11.10;99.90;;;;;;5050127;28;20029;-86
2022/11/11 12:28:22;;;;;;;7.13;4.85;;;11.10;99.90;;;;;;5047453;28;20035;-86
2022/11/11 12:30:56;;;;;;;5.53;4.70;;;11.20;99.90;;;;;;5046486;28;20025;-86
2022/11/11 12:33:37;;;;;;;5.50;4.90;;;11.20;99.90;;;;;;5046409;28;20114;-86
2022/11/11 12:36:24;;;;;;;6.47;4.50;;;11.20;99.90;;;;;;5048224;28;21138;-85
2022/11/11 12:39:06;;;;;;;5.03;4.18;;;11.30;99.90;;;;;;5047476;28;20032;-85
2022/11/11 12:41:45;;;;;;;5.95;4.38;;;11.30;99.90;;;;;;5049332;28;20025;-84
2022/11/11 12:44:12;;;;;;;8.30;4.30;;;11.30;99.90;;;;;;5045760;28;20150;-84
2022/11/11 12:46:41;;;;;;;7.32;4.32;;;11.30;99.90;;;;;;5047836;28;20025;-84
2022/11/11 12:49:21;;;;;;;7.60;4.43;;;11.40;99.90;;;;;;5047556;28;20078;-84
2022/11/11 12:52:09;;;;;;;5.20;4.13;;;11.40;99.90;;;;;;5045320;28;20017;-84
2022/11/11 12:55:05;;;;;;;5.40;3.75;;;11.40;99.90;;;;;;5048678;28;21133;-84
2022/11/11 12:58:02;;;;;;;7.13;3.80;;;11.30;99.90;;;;;;5047946;28;20025;-84
2022/11/11 13:00:31;;;;;;;6.97;3.83;;;11.30;99.90;;;;;;5038195;28;21104;-84
2022/11/11 13:03:17;;;;;;;6.22;4.25;;;11.30;99.90;;;;;;5046471;28;20525;-84
2022/11/11 13:06:08;;;;;;;4.10;3.63;;;11.30;99.90;;;;;;5046870;28;20021;-84
2022/11/11 13:08:34;;;;;;;6.70;4.15;;;11.20;99.90;;;;;;5046619;28;20144;-84
2022/11/11 13:11:29;;;;;;;7.88;4.22;;;11.10;99.90;;;;;;5048198;28;20084;-84
2022/11/11 13:14:06;;;;;;;6.20;4.35;;;11.10;99.90;;;;;;5045034;28;20040;-84
2022/11/11 13:16:32;;;;;;;7.18;4.78;;;11.00;99.90;;;;;;5046806;28;20562;-84
2022/11/11 13:19:02;;;;;;;6.63;4.43;;;11.00;99.90;;;;;;5046726;28;20048;-84
2022/11/11 13:21:43;;;;;;;11.32;4.82;;;10.90;99.90;;;;;;5045827;28;21150;-84
2022/11/11 13:24:13;;;;;;;5.57;4.80;;;10.80;99.90;;;;;;5047860;28;20362;-84
2022/11/11 13:26:44;;;;;;;8.63;5.57;;;10.70;99.90;;;;;;5045792;28;20041;-84
2022/11/11 13:29:47;;;;;;;10.45;4.72;;;10.60;99.90;;;;;;5048627;28;20025;-83
2022/11/11 13:32:17;;;;;;;9.13;5.10;;;10.60;99.90;;;;;;5051800;28;20065;-83
2022/11/11 13:34:44;;;;;;;9.38;5.18;;;10.50;99.90;;;;;;5053160;28;20021;-85
2022/11/11 13:37:27;;;;;;;10.57;6.10;;;10.40;99.90;;;;;;5054939;28;20017;-85
2022/11/11 13:39:59;;;;;;;9.20;5.93;;;10.30;99.90;;;;;;5055427;28;20032;-85
2022/11/11 13:42:29;;;;;;;5.90;4.97;;;10.30;99.90;;;;;;5054998;28;20021;-85
2022/11/11 13:45:00;;;;;;;8.27;5.87;;;10.20;99.90;;;;;;5054751;28;20032;-85
2022/11/11 13:47:33;;;;;;;8.17;5.03;;;10.20;99.90;;;;;;5054955;28;20079;-85
2022/11/11 13:50:07;;;;;;;8.10;5.23;;;10.20;99.90;;;;;;5054793;28;20017;-85
2022/11/11 13:52:36;;;;;;;8.35;5.25;;;10.20;99.90;;;;;;5054726;28;20021;-85
2022/11/11 13:55:05;;;;;;;7.07;4.90;;;10.10;99.90;;;;;;5054613;28;20479;-85
2022/11/11 13:57:34;;;;;;;8.13;4.57;;;10.20;99.90;;;;;;5052768;28;20021;-85
2022/11/11 14:00:25;;;;;;;9.52;5.18;;;10.20;99.90;;;;;;5054726;28;20418;-84
2022/11/11 14:03:21;;;;;;;7.35;5.28;;;10.20;99.90;;;;;;5054323;28;20447;-85
2022/11/11 14:05:47;;;;;;;6.93;5.35;;;10.30;99.90;;;;;;5054027;28;20370;-84
2022/11/11 14:08:44;;;;;;;17.10;10.43;;;10.30;99.90;;;;;;5054717;28;20021;-85
2022/11/11 14:11:25;;;;;;;13.63;7.70;;;10.20;99.90;;;;;;5054757;28;20025;-84
2022/11/11 14:13:55;;;;;;;9.40;5.20;;;10.20;99.90;;;;;;5054485;28;20354;-85
2022/11/11 14:16:33;;;;;;;7.65;5.50;;;10.30;99.90;;;;;;5054493;28;20489;-84
2022/11/11 14:19:27;;;;;;;6.95;5.10;;;10.30;99.90;;;;;;5054223;28;20051;-84
2022/11/11 14:21:54;;;;;;;7.32;5.13;;;10.30;99.90;;;;;;5054458;28;20031;-84
2022/11/11 14:24:36;;;;;;;6.43;5.13;;;10.30;99.90;;;;;;5054184;28;20040;-84
2022/11/11 14:27:07;;;;;;;6.00;5.17;;;10.30;99.90;;;;;;5054628;28;20029;-84